Time;durP1;ratioP1;P1;durP2;ratioP2;P2;SDS_P1;SDS_P2;PMS_P1;PMS_P2;Temp;Humidity;BMP_temperature;BMP_pressure;BME280_temperature;BME280_humidity;BME280_pressure;Samples;Min_cycle;Max_cycle;Signal;HPM_P1;HPM_P2
2022/05/08 00:00:31;;;;;;;6.72;4.45;;;13.80;83.60;;;;;;5045017;28;20056;-66
2022/05/08 00:02:57;;;;;;;5.63;4.82;;;13.80;83.80;;;;;;5063988;28;20403;-67
2022/05/08 00:05:24;;;;;;;7.65;5.53;;;13.70;83.90;;;;;;5048796;28;20033;-67
2022/05/08 00:07:49;;;;;;;9.43;5.65;;;13.70;84.00;;;;;;5051516;28;20493;-66
2022/05/08 00:10:15;;;;;;;10.00;5.40;;;13.60;84.00;;;;;;5048978;28;20037;-66
2022/05/08 00:12:41;;;;;;;10.18;5.40;;;13.60;84.20;;;;;;5048768;28;20061;-67
2022/05/08 00:15:07;;;;;;;10.48;5.82;;;13.50;84.30;;;;;;5049866;28;20021;-66
2022/05/08 00:17:34;;;;;;;12.05;6.30;;;13.50;84.40;;;;;;5048827;28;20476;-66
2022/05/08 00:20:02;;;;;;;8.18;5.65;;;13.50;84.60;;;;;;5049524;28;20040;-66
2022/05/08 00:22:28;;;;;;;9.50;6.28;;;13.40;84.80;;;;;;5060714;28;20116;-66
2022/05/08 00:24:53;;;;;;;7.93;5.32;;;13.30;85.10;;;;;;5048471;28;20103;-66
2022/05/08 00:27:19;;;;;;;10.27;6.90;;;13.30;85.10;;;;;;5056862;28;20028;-66
2022/05/08 00:29:44;;;;;;;8.18;6.00;;;13.30;85.10;;;;;;5051161;28;20024;-66
2022/05/08 00:32:10;;;;;;;11.45;6.35;;;13.30;85.10;;;;;;5053696;28;20040;-66
2022/05/08 00:34:36;;;;;;;10.65;6.40;;;13.30;85.10;;;;;;5065499;28;20033;-66
2022/05/08 00:37:01;;;;;;;10.10;6.80;;;13.30;85.10;;;;;;5048355;28;20410;-67
2022/05/08 00:39:27;;;;;;;11.90;7.78;;;13.20;85.20;;;;;;5047346;28;20495;-66
2022/05/08 00:41:52;;;;;;;12.00;7.57;;;13.10;85.50;;;;;;5049264;28;20020;-66
2022/05/08 00:44:18;;;;;;;8.05;6.00;;;13.10;85.60;;;;;;5046962;28;20378;-67
2022/05/08 00:46:43;;;;;;;9.70;7.00;;;13.00;85.70;;;;;;5048081;28;20423;-66
2022/05/08 00:49:09;;;;;;;9.95;6.63;;;13.00;86.00;;;;;;5050855;28;20032;-66
2022/05/08 00:51:36;;;;;;;10.77;6.90;;;13.00;86.30;;;;;;5050827;28;20484;-66
2022/05/08 00:54:03;;;;;;;13.48;7.72;;;13.00;86.30;;;;;;5065483;28;20035;-67
2022/05/08 00:56:29;;;;;;;9.38;7.15;;;12.90;86.40;;;;;;5048698;28;20100;-66
2022/05/08 00:58:55;;;;;;;9.40;7.15;;;12.90;86.40;;;;;;5050036;28;20124;-67
2022/05/08 01:01:21;;;;;;;9.68;6.78;;;12.90;86.60;;;;;;5049085;28;20017;-67
2022/05/08 01:03:47;;;;;;;11.27;7.13;;;12.90;86.70;;;;;;5048780;28;20469;-66
2022/05/08 01:06:18;;;;;;;12.80;7.25;;;12.90;86.70;;;;;;5048841;28;20029;-66
2022/05/08 01:08:48;;;;;;;13.80;6.78;;;12.90;86.80;;;;;;5054794;28;20067;-66
2022/05/08 01:11:14;;;;;;;13.77;8.43;;;12.90;86.80;;;;;;5048031;28;20384;-66
2022/05/08 01:13:42;;;;;;;14.27;7.30;;;12.80;87.00;;;;;;5047870;28;20044;-67
2022/05/08 01:16:12;;;;;;;11.73;6.80;;;12.70;87.20;;;;;;5048079;28;20029;-66
2022/05/08 01:18:38;;;;;;;15.00;7.35;;;12.70;87.40;;;;;;5050389;28;20497;-65
2022/05/08 01:21:07;;;;;;;9.88;6.95;;;12.70;87.50;;;;;;5047902;28;20036;-66
2022/05/08 01:23:32;;;;;;;11.55;7.32;;;12.70;87.70;;;;;;5048779;28;20078;-67
2022/05/08 01:25:58;;;;;;;14.07;8.13;;;12.60;87.80;;;;;;5052579;28;20029;-66
2022/05/08 01:28:25;;;;;;;12.52;6.82;;;12.60;87.90;;;;;;5048001;28;20079;-66
2022/05/08 01:30:52;;;;;;;11.50;8.23;;;12.60;87.90;;;;;;5047675;28;20029;-66
2022/05/08 01:33:18;;;;;;;12.25;7.30;;;12.60;87.90;;;;;;5053276;28;20025;-66
2022/05/08 01:35:45;;;;;;;13.00;7.35;;;12.50;87.80;;;;;;5047687;28;20021;-66
2022/05/08 01:38:13;;;;;;;12.10;6.90;;;12.50;87.80;;;;;;5048448;28;20435;-66
2022/05/08 01:40:40;;;;;;;13.57;7.13;;;12.50;87.70;;;;;;5049578;28;20021;-66
2022/05/08 01:43:06;;;;;;;11.88;7.40;;;12.50;87.70;;;;;;5050491;28;20552;-66
2022/05/08 01:45:32;;;;;;;11.48;6.40;;;12.40;87.60;;;;;;5051313;28;20023;-66
2022/05/08 01:50:42;;;;;;;12.23;6.35;;;12.40;87.20;;;;;;5050371;28;20031;-67
2022/05/08 01:53:08;;;;;;;11.75;5.53;;;12.30;86.90;;;;;;5053898;28;20024;-66
2022/05/08 01:55:35;;;;;;;15.13;5.55;;;12.30;86.40;;;;;;5051209;28;20029;-66
2022/05/08 01:58:01;;;;;;;11.57;5.95;;;12.30;86.30;;;;;;5051463;28;20124;-67
2022/05/08 02:00:28;;;;;;;12.90;5.82;;;12.30;85.90;;;;;;5053960;28;20032;-66
2022/05/08 02:02:58;;;;;;;12.93;5.78;;;12.30;85.70;;;;;;5056595;28;20075;-66
2022/05/08 02:05:24;;;;;;;8.45;4.63;;;12.30;85.60;;;;;;5053237;28;20033;-66
2022/05/08 02:07:49;;;;;;;11.23;4.47;;;12.20;85.60;;;;;;5053955;28;20041;-66
2022/05/08 02:10:17;;;;;;;9.75;4.55;;;12.20;85.50;;;;;;5051244;28;20078;-66
2022/05/08 02:12:43;;;;;;;12.95;4.63;;;12.10;85.40;;;;;;5051276;28;20500;-66
2022/05/08 02:15:11;;;;;;;14.30;4.55;;;12.10;85.50;;;;;;5053634;28;20179;-66
2022/05/08 02:17:37;;;;;;;14.00;5.30;;;12.10;85.20;;;;;;5050796;28;20044;-66
2022/05/08 02:20:06;;;;;;;12.32;4.75;;;12.00;85.00;;;;;;5066038;28;20136;-66
2022/05/08 02:22:32;;;;;;;12.30;5.32;;;12.00;84.90;;;;;;5050492;28;20024;-66
2022/05/08 02:24:57;;;;;;;11.38;5.20;;;12.00;84.90;;;;;;5053417;28;20024;-66
2022/05/08 02:27:23;;;;;;;19.95;6.30;;;12.00;84.70;;;;;;5050823;28;20037;-66
2022/05/08 02:29:49;;;;;;;18.05;6.05;;;11.90;84.60;;;;;;5050932;28;20017;-66
2022/05/08 02:32:15;;;;;;;13.98;6.18;;;11.90;84.30;;;;;;5050643;28;20435;-66
2022/05/08 02:34:41;;;;;;;18.85;5.22;;;11.90;84.20;;;;;;5054431;28;20025;-66
2022/05/08 02:37:07;;;;;;;16.40;5.50;;;11.90;84.00;;;;;;5053397;28;20616;-66
2022/05/08 02:39:32;;;;;;;9.25;4.30;;;11.90;83.90;;;;;;5047775;28;20465;-67
2022/05/08 02:41:58;;;;;;;17.00;5.00;;;11.80;83.90;;;;;;5053196;28;20465;-66
2022/05/08 02:44:24;;;;;;;14.38;4.88;;;11.80;84.00;;;;;;5053182;28;20029;-66
2022/05/08 02:46:49;;;;;;;17.13;4.70;;;11.80;84.10;;;;;;5052906;28;20028;-67
2022/05/08 02:49:15;;;;;;;15.30;6.07;;;11.80;84.00;;;;;;5053124;28;20017;-66
2022/05/08 02:51:41;;;;;;;13.60;3.58;;;11.80;84.00;;;;;;5050208;28;20021;-66
2022/05/08 02:54:06;;;;;;;14.38;3.70;;;11.70;83.90;;;;;;5050331;28;20021;-66
2022/05/08 02:59:16;;;;;;;15.98;3.85;;;11.70;84.00;;;;;;5050570;28;20032;-66
2022/05/08 03:01:41;;;;;;;15.25;3.55;;;11.70;84.40;;;;;;5051294;28;20029;-66
2022/05/08 03:04:07;;;;;;;14.90;4.50;;;11.60;84.70;;;;;;5050671;28;20037;-66
2022/05/08 03:06:33;;;;;;;17.38;3.88;;;11.60;85.00;;;;;;5050171;28;20032;-66
2022/05/08 03:08:59;;;;;;;14.32;3.15;;;11.60;85.00;;;;;;5049921;28;20020;-66
2022/05/08 03:11:28;;;;;;;12.65;4.13;;;11.60;85.00;;;;;;5052523;28;20072;-66
2022/05/08 03:13:55;;;;;;;11.50;3.58;;;11.50;85.00;;;;;;5047333;28;20465;-66
2022/05/08 03:16:22;;;;;;;13.10;3.88;;;11.50;85.10;;;;;;5049901;28;20492;-66
2022/05/08 03:18:48;;;;;;;13.18;3.38;;;11.60;85.90;;;;;;5049498;28;20126;-66
2022/05/08 03:21:14;;;;;;;15.18;3.40;;;11.50;85.30;;;;;;5055296;28;20060;-66
2022/05/08 03:23:41;;;;;;;13.85;4.30;;;11.50;85.30;;;;;;5064741;28;20036;-66
2022/05/08 03:26:07;;;;;;;17.38;4.18;;;11.50;85.30;;;;;;5049628;28;20063;-66
2022/05/08 03:28:33;;;;;;;16.65;4.03;;;11.40;85.30;;;;;;5055319;28;20021;-66
2022/05/08 03:30:59;;;;;;;14.07;4.03;;;11.40;85.70;;;;;;5049487;28;20025;-66
2022/05/08 03:33:29;;;;;;;16.50;3.90;;;11.40;85.80;;;;;;5054964;28;20035;-66
2022/05/08 03:35:54;;;;;;;;;;;11.30;85.70;;;;;;5049912;28;20121;-66
2022/05/08 03:38:20;;;;;;;14.70;3.40;;;11.30;85.90;;;;;;5067605;28;20320;-66
2022/05/08 03:40:46;;;;;;;16.60;3.75;;;11.20;86.20;;;;;;5052176;28;20055;-66
2022/05/08 03:43:11;;;;;;;12.43;3.00;;;11.20;86.10;;;;;;5054590;28;20083;-67
2022/05/08 03:45:37;;;;;;;19.38;3.53;;;11.20;86.10;;;;;;5061844;28;20024;-66
2022/05/08 03:48:03;;;;;;;17.58;4.10;;;11.20;86.10;;;;;;5053958;28;20025;-66
2022/05/08 03:50:29;;;;;;;16.30;3.53;;;11.20;86.10;;;;;;5052782;28;20051;-66
2022/05/08 03:52:59;;;;;;;14.27;3.13;;;11.20;86.30;;;;;;5054623;28;20451;-67
2022/05/08 03:55:25;;;;;;;21.20;3.97;;;11.20;86.20;;;;;;5057079;28;20029;-66
2022/05/08 03:57:51;;;;;;;12.93;3.55;;;11.20;86.20;;;;;;5048922;28;20524;-66
2022/05/08 04:00:17;;;;;;;12.55;2.88;;;11.10;86.10;;;;;;5053188;28;20060;-66
2022/05/08 04:02:43;;;;;;;15.65;3.30;;;11.20;86.10;;;;;;5050207;28;20025;-66
2022/05/08 04:05:10;;;;;;;11.85;3.60;;;11.10;86.10;;;;;;5051453;28;20216;-66
2022/05/08 04:07:37;;;;;;;12.35;3.13;;;11.20;86.10;;;;;;5047012;28;20093;-66
2022/05/08 04:10:03;;;;;;;14.57;4.03;;;11.10;86.00;;;;;;5051465;28;20562;-66
2022/05/08 04:12:29;;;;;;;12.30;3.20;;;11.10;86.00;;;;;;5048460;28;20029;-66
2022/05/08 04:14:54;;;;;;;13.88;3.00;;;11.00;86.00;;;;;;5064020;28;20079;-66
2022/05/08 04:17:20;;;;;;;12.95;2.63;;;11.00;85.80;;;;;;5051366;28;20444;-66
2022/05/08 04:19:48;;;;;;;10.65;3.35;;;11.00;85.90;;;;;;5051557;28;20532;-66
2022/05/08 04:24:58;;;;;;;14.38;2.47;;;11.00;85.90;;;;;;5049086;28;20519;-66
2022/05/08 04:27:24;;;;;;;9.32;2.60;;;10.90;85.80;;;;;;5051417;28;20132;-67
2022/05/08 04:29:50;;;;;;;10.70;2.35;;;10.90;85.80;;;;;;5048328;28;20029;-66
2022/05/08 04:32:15;;;;;;;10.98;2.30;;;10.90;85.90;;;;;;5063747;28;20374;-66
2022/05/08 04:34:41;;;;;;;8.70;2.53;;;10.90;86.10;;;;;;5051038;28;20028;-66
2022/05/08 04:37:07;;;;;;;11.30;3.03;;;10.80;86.10;;;;;;5051439;28;20473;-66
2022/05/08 04:39:32;;;;;;;12.25;3.30;;;10.80;86.20;;;;;;5051156;28;20492;-66
2022/05/08 04:41:59;;;;;;;18.08;3.45;;;10.80;86.90;;;;;;5049613;28;20107;-66
2022/05/08 04:44:24;;;;;;;12.48;2.90;;;10.80;86.30;;;;;;5046886;28;20120;-66
2022/05/08 04:46:50;;;;;;;15.70;3.20;;;10.80;86.30;;;;;;5050745;28;20108;-66
2022/05/08 04:49:15;;;;;;;11.57;2.42;;;10.80;86.40;;;;;;5048393;28;20017;-66
2022/05/08 04:51:41;;;;;;;12.80;2.85;;;10.80;86.40;;;;;;5048165;28;20029;-66
2022/05/08 04:54:06;;;;;;;11.80;2.70;;;10.70;86.50;;;;;;5048172;28;20025;-66
2022/05/08 04:56:32;;;;;;;11.45;2.67;;;10.80;86.60;;;;;;5047796;28;20057;-66
2022/05/08 04:58:57;;;;;;;14.45;2.63;;;10.80;86.50;;;;;;5063298;28;20396;-67
2022/05/08 05:01:23;;;;;;;16.08;3.03;;;10.70;86.40;;;;;;5050901;28;20037;-66
2022/05/08 05:03:50;;;;;;;12.00;3.22;;;10.70;86.50;;;;;;5048552;28;20033;-66
2022/05/08 05:06:16;;;;;;;13.20;2.58;;;10.70;86.60;;;;;;5051423;28;20052;-66
2022/05/08 05:08:41;;;;;;;13.32;3.05;;;10.60;86.70;;;;;;5051873;28;20056;-66
2022/05/08 05:11:10;;;;;;;13.50;2.90;;;10.70;86.80;;;;;;5051789;28;20112;-66
2022/05/08 05:13:39;;;;;;;13.07;3.73;;;10.60;86.70;;;;;;5052007;28;20460;-66
2022/05/08 05:16:05;;;;;;;15.32;3.28;;;10.60;86.70;;;;;;5052200;28;20079;-66
2022/05/08 05:18:31;;;;;;;14.25;2.85;;;10.60;86.80;;;;;;5051612;28;20025;-65
2022/05/08 05:20:57;;;;;;;14.18;2.85;;;10.60;87.00;;;;;;5051978;28;20087;-66
2022/05/08 05:23:23;;;;;;;10.90;2.67;;;10.50;87.00;;;;;;5051853;28;20033;-66
2022/05/08 05:25:50;;;;;;;17.88;3.60;;;10.60;87.00;;;;;;5054644;28;20021;-66
2022/05/08 05:28:16;;;;;;;18.50;3.63;;;10.60;87.00;;;;;;5055800;28;20158;-67
2022/05/08 05:30:42;;;;;;;16.23;3.53;;;10.60;87.00;;;;;;5055685;28;20067;-66
2022/05/08 05:33:08;;;;;;;16.75;4.07;;;10.60;87.10;;;;;;5055689;28;20032;-66
2022/05/08 05:35:37;;;;;;;15.38;3.05;;;10.60;87.20;;;;;;5055814;28;20100;-66
2022/05/08 05:38:03;;;;;;;16.90;2.65;;;10.60;87.10;;;;;;5055768;28;20096;-66
2022/05/08 05:40:29;;;;;;;18.85;3.33;;;10.70;87.20;;;;;;5055586;28;20104;-66
2022/05/08 05:42:57;;;;;;;14.68;2.75;;;10.70;87.10;;;;;;5055311;28;20024;-66
2022/05/08 05:45:23;;;;;;;13.75;3.25;;;10.80;87.00;;;;;;5055383;28;20020;-66
2022/05/08 05:47:54;;;;;;;16.50;3.50;;;10.80;86.30;;;;;;5055371;28;20040;-66
2022/05/08 05:50:22;;;;;;;14.73;3.13;;;10.90;86.40;;;;;;5070881;28;20453;-66
2022/05/08 05:52:48;;;;;;;14.18;2.97;;;10.90;86.30;;;;;;5055202;28;20499;-66
2022/05/08 05:55:13;;;;;;;16.10;3.55;;;11.00;86.10;;;;;;5055049;28;20108;-66
2022/05/08 05:57:39;;;;;;;15.43;2.85;;;11.00;85.80;;;;;;5055093;28;20125;-66
2022/05/08 06:00:09;;;;;;;14.80;2.88;;;11.00;85.50;;;;;;5055537;28;20029;-66
2022/05/08 06:02:35;;;;;;;15.45;3.38;;;11.10;85.30;;;;;;5054493;28;20388;-66
2022/05/08 06:05:00;;;;;;;16.00;3.10;;;11.10;85.00;;;;;;5055201;28;20504;-66
2022/05/08 06:07:26;;;;;;;16.00;3.33;;;11.10;84.80;;;;;;5055071;28;20133;-66
2022/05/08 06:09:52;;;;;;;12.88;2.65;;;11.20;84.80;;;;;;5055693;28;20036;-66
2022/05/08 06:12:17;;;;;;;19.10;3.50;;;11.20;84.50;;;;;;5054862;28;20032;-66
2022/05/08 06:14:43;;;;;;;13.15;2.90;;;11.30;84.00;;;;;;5054842;28;20086;-66
2022/05/08 06:17:08;;;;;;;11.63;2.97;;;11.30;83.60;;;;;;5054972;28;20025;-66
2022/05/08 06:19:34;;;;;;;12.82;3.13;;;11.40;83.30;;;;;;5065439;28;20045;-66
2022/05/08 06:22:00;;;;;;;16.15;4.00;;;11.40;83.00;;;;;;5034191;28;20029;-66
2022/05/08 06:24:25;;;;;;;10.90;3.08;;;11.50;83.10;;;;;;5033809;28;20397;-66
2022/05/08 06:26:51;;;;;;;17.58;3.45;;;11.50;83.10;;;;;;5034466;28;20037;-66
2022/05/08 06:29:16;;;;;;;19.02;3.20;;;11.50;82.80;;;;;;5034574;28;20037;-66
2022/05/08 06:31:42;;;;;;;15.45;3.28;;;11.50;82.40;;;;;;5050031;28;20029;-66
2022/05/08 06:34:08;;;;;;;14.60;2.80;;;11.50;82.30;;;;;;5034486;28;20021;-66
2022/05/08 06:36:34;;;;;;;10.85;2.67;;;11.60;82.30;;;;;;5048580;28;20435;-66
2022/05/08 06:39:00;;;;;;;15.23;3.28;;;11.70;82.40;;;;;;5054418;28;20127;-66
2022/05/08 06:41:26;;;;;;;20.55;3.42;;;11.70;82.20;;;;;;5054475;28;20040;-66
2022/05/08 06:43:53;;;;;;;15.77;3.45;;;11.80;82.10;;;;;;5054078;28;20067;-66
2022/05/08 06:46:19;;;;;;;10.38;2.83;;;11.80;81.40;;;;;;5054589;28;20029;-66
2022/05/08 06:48:45;;;;;;;20.83;4.03;;;11.90;81.00;;;;;;5069634;28;20024;-66
2022/05/08 06:51:11;;;;;;;13.20;2.80;;;11.90;80.60;;;;;;5054015;28;20586;-66
2022/05/08 06:53:37;;;;;;;13.38;2.80;;;11.90;80.60;;;;;;5053146;28;20082;-66
2022/05/08 06:56:02;;;;;;;12.90;2.75;;;11.90;80.30;;;;;;5053316;28;20021;-66
2022/05/08 06:58:28;;;;;;;11.48;2.65;;;11.90;80.40;;;;;;5069036;28;20103;-66
2022/05/08 07:03:39;;;;;;;12.60;2.92;;;12.00;80.00;;;;;;5054295;28;20043;-66
2022/05/08 07:06:04;;;;;;;13.93;2.60;;;12.00;79.60;;;;;;5054000;28;20049;-66
2022/05/08 07:08:30;;;;;;;9.23;2.05;;;12.00;79.60;;;;;;5053914;28;20072;-66
2022/05/08 07:10:55;;;;;;;11.63;2.53;;;12.10;79.60;;;;;;5054284;28;20499;-66
2022/05/08 07:13:25;;;;;;;15.43;3.20;;;12.10;79.70;;;;;;5053699;28;20036;-66
2022/05/08 07:15:51;;;;;;;11.45;2.97;;;12.10;79.20;;;;;;5053637;28;20528;-66
2022/05/08 07:18:18;;;;;;;11.50;2.30;;;12.10;79.00;;;;;;5053749;28;20174;-66
2022/05/08 07:20:43;;;;;;;13.73;2.58;;;12.20;79.20;;;;;;5053531;28;20436;-66
2022/05/08 07:23:09;;;;;;;11.85;2.72;;;12.20;78.60;;;;;;5053805;28;20497;-66
2022/05/08 07:25:35;;;;;;;11.38;2.72;;;12.20;78.10;;;;;;5053501;28;20028;-66
2022/05/08 07:28:00;;;;;;;12.38;2.03;;;12.20;78.40;;;;;;5052457;28;20111;-66
2022/05/08 07:30:26;;;;;;;10.30;2.15;;;12.20;78.30;;;;;;5068715;28;20025;-66
2022/05/08 07:32:51;;;;;;;9.55;2.58;;;12.20;78.30;;;;;;5052887;28;20028;-66
2022/05/08 07:38:01;;;;;;;10.10;2.22;;;12.30;77.20;;;;;;5052748;28;20499;-66
2022/05/08 07:40:29;;;;;;;12.50;2.80;;;12.30;77.30;;;;;;5051603;28;20029;-66
2022/05/08 07:42:54;;;;;;;8.95;2.10;;;12.30;77.40;;;;;;5051578;28;20092;-66
2022/05/08 07:45:20;;;;;;;10.20;2.08;;;12.40;77.10;;;;;;5051529;28;20104;-66
2022/05/08 07:47:45;;;;;;;10.50;1.95;;;12.40;76.60;;;;;;5050397;28;20490;-66
2022/05/08 07:50:11;;;;;;;7.95;2.00;;;12.50;76.60;;;;;;5051336;28;20025;-66
2022/05/08 07:52:38;;;;;;;10.43;1.90;;;12.50;76.50;;;;;;5051402;28;20071;-66
2022/05/08 07:55:05;;;;;;;10.63;2.17;;;12.60;75.60;;;;;;5051443;28;20412;-65
2022/05/08 07:57:30;;;;;;;7.18;1.35;;;12.70;75.60;;;;;;5051199;28;20020;-66
2022/05/08 07:59:56;;;;;;;10.23;2.10;;;12.80;75.70;;;;;;5051138;28;20071;-66
2022/05/08 08:02:21;;;;;;;9.40;2.97;;;12.80;74.60;;;;;;5051130;28;20075;-66
2022/05/08 08:04:47;;;;;;;8.60;2.40;;;12.80;74.30;;;;;;5055400;28;20035;-66
2022/05/08 08:07:12;;;;;;;10.77;1.95;;;12.90;74.30;;;;;;5051111;28;20035;-66
2022/05/08 08:09:38;;;;;;;7.97;2.13;;;12.90;74.10;;;;;;5051073;28;20443;-66
2022/05/08 08:12:03;;;;;;;13.95;2.67;;;13.00;74.30;;;;;;5051143;28;20052;-66
2022/05/08 08:14:29;;;;;;;11.23;1.60;;;13.00;73.90;;;;;;5050785;28;20059;-66
2022/05/08 08:16:55;;;;;;;10.40;2.28;;;13.10;74.00;;;;;;5050638;28;20044;-66
2022/05/08 08:19:20;;;;;;;7.63;1.40;;;13.10;74.10;;;;;;5050860;28;20068;-65
2022/05/08 08:21:46;;;;;;;10.05;2.05;;;13.20;73.30;;;;;;5050806;28;20094;-66
2022/05/08 08:24:11;;;;;;;9.32;1.60;;;13.30;72.80;;;;;;5050758;28;20099;-65
2022/05/08 08:26:40;;;;;;;10.55;1.52;;;13.30;72.60;;;;;;5050897;28;20060;-65
2022/05/08 08:29:06;;;;;;;7.75;2.55;;;13.40;72.60;;;;;;5050790;28;20027;-66
2022/05/08 08:31:31;;;;;;;10.48;2.20;;;13.40;72.50;;;;;;5050498;28;20017;-66
2022/05/08 08:33:58;;;;;;;8.23;2.03;;;13.50;72.60;;;;;;5050672;28;20033;-65
2022/05/08 08:36:24;;;;;;;8.15;1.75;;;13.50;71.80;;;;;;5050992;28;20032;-65
2022/05/08 08:38:50;;;;;;;10.07;1.83;;;13.60;71.80;;;;;;5052191;28;20025;-65
2022/05/08 08:41:21;;;;;;;7.05;1.55;;;13.60;71.80;;;;;;5052510;28;20392;-66
2022/05/08 08:49:20;;;;;;;9.23;1.55;;;13.80;71.80;;;;;;5052477;28;20500;-66
2022/05/08 08:51:48;;;;;;;6.72;1.55;;;13.90;71.50;;;;;;5067531;28;20036;-66
2022/05/08 08:54:14;;;;;;;7.43;1.40;;;14.00;71.50;;;;;;5052052;28;20078;-66
2022/05/08 08:56:40;;;;;;;9.25;1.40;;;14.10;71.30;;;;;;5050490;28;20033;-66
2022/05/08 08:59:05;;;;;;;6.65;1.73;;;14.10;70.40;;;;;;5049861;28;20094;-66
2022/05/08 09:01:40;;;;;;;5.93;1.88;;;14.20;69.60;;;;;;5050326;28;20480;-66
2022/05/08 09:04:07;;;;;;;8.20;1.48;;;14.20;68.70;;;;;;5050692;28;20428;-66
2022/05/08 09:06:44;;;;;;;8.18;1.42;;;14.30;69.10;;;;;;5048800;28;20025;-66
2022/05/08 09:09:28;;;;;;;6.35;1.40;;;14.30;68.80;;;;;;5051948;28;20497;-66
2022/05/08 09:11:56;;;;;;;6.25;1.75;;;14.40;68.20;;;;;;5051942;28;20029;-66
2022/05/08 09:14:34;;;;;;;7.88;1.70;;;14.40;67.90;;;;;;5051974;28;20492;-66
2022/05/08 09:17:02;;;;;;;10.93;1.58;;;14.40;67.80;;;;;;5050715;28;20102;-66
2022/05/08 09:19:38;;;;;;;6.90;1.63;;;14.50;67.40;;;;;;5049941;28;20049;-66
2022/05/08 09:22:05;;;;;;;10.48;2.05;;;14.60;66.90;;;;;;5050910;28;20017;-66
2022/05/08 09:24:32;;;;;;;6.38;1.60;;;14.60;67.20;;;;;;5051878;28;20025;-66
2022/05/08 09:27:14;;;;;;;9.52;1.92;;;14.60;66.40;;;;;;5051814;28;20028;-66
2022/05/08 09:29:41;;;;;;;8.75;1.80;;;14.70;66.80;;;;;;5051644;28;20032;-66
2022/05/08 09:32:07;;;;;;;9.52;2.08;;;14.80;66.30;;;;;;5064280;28;20564;-66
2022/05/08 09:34:55;;;;;;;6.60;1.73;;;14.90;66.10;;;;;;5049894;28;20044;-66
2022/05/08 09:37:21;;;;;;;8.68;1.90;;;15.00;66.00;;;;;;5047905;28;20112;-66
2022/05/08 09:39:46;;;;;;;9.18;1.92;;;15.00;66.10;;;;;;5050058;28;20112;-66
2022/05/08 09:42:37;;;;;;;6.82;1.80;;;15.00;65.50;;;;;;5050348;28;20029;-66
2022/05/08 09:45:07;;;;;;;5.32;1.48;;;15.10;65.20;;;;;;5051663;28;20081;-66
2022/05/08 09:47:46;;;;;;;6.85;1.20;;;15.10;65.40;;;;;;5051523;28;20025;-66
2022/05/08 09:50:13;;;;;;;8.05;1.92;;;15.30;65.30;;;;;;5051707;28;20025;-66
2022/05/08 09:52:41;;;;;;;7.50;2.10;;;15.30;64.60;;;;;;5051346;28;20131;-66
2022/05/08 09:55:08;;;;;;;6.07;1.67;;;15.30;63.70;;;;;;5051774;28;20111;-66
2022/05/08 09:57:35;;;;;;;5.28;1.83;;;15.40;64.10;;;;;;5051614;28;20171;-66
2022/05/08 10:00:01;;;;;;;8.65;1.77;;;15.50;64.20;;;;;;5066609;28;20797;-66
2022/05/08 10:02:27;;;;;;;10.10;2.00;;;15.60;64.00;;;;;;5066581;28;20040;-66
2022/05/08 10:04:53;;;;;;;7.03;1.40;;;15.60;62.30;;;;;;5050080;28;20037;-66
2022/05/08 10:07:20;;;;;;;7.07;1.63;;;15.60;62.60;;;;;;5051459;28;20401;-66
2022/05/08 10:15:33;;;;;;;8.35;1.85;;;15.80;61.00;;;;;;5055235;28;20432;-67
2022/05/08 10:18:24;;;;;;;6.30;1.55;;;15.90;61.60;;;;;;5054811;28;20021;-66
2022/05/08 10:21:12;;;;;;;6.32;1.65;;;16.10;60.90;;;;;;5070376;28;20037;-66
2022/05/08 10:23:43;;;;;;;5.78;1.45;;;16.10;60.80;;;;;;5054795;28;20043;-66
2022/05/08 10:26:15;;;;;;;9.95;1.95;;;16.20;59.60;;;;;;5054817;28;20025;-66
2022/05/08 10:29:02;;;;;;;5.15;1.40;;;16.30;59.50;;;;;;5054428;28;20029;-66
2022/05/08 10:31:48;;;;;;;6.05;1.30;;;16.40;59.10;;;;;;5054712;28;20524;-66
2022/05/08 10:34:14;;;;;;;7.95;1.70;;;16.60;59.60;;;;;;5054255;28;20111;-66
2022/05/08 10:37:00;;;;;;;6.25;1.23;;;16.60;58.80;;;;;;5054521;28;20017;-66
2022/05/08 10:39:58;;;;;;;5.65;1.27;;;16.70;58.70;;;;;;5054418;28;20029;-66
2022/05/08 10:42:39;;;;;;;8.63;2.10;;;16.90;59.20;;;;;;5047830;28;20044;-67
2022/05/08 10:45:06;;;;;;;7.05;1.75;;;17.00;59.00;;;;;;5068557;28;20380;-66
2022/05/08 10:47:37;;;;;;;8.00;1.73;;;17.10;58.90;;;;;;5053119;28;20072;-67
2022/05/08 10:50:13;;;;;;;8.43;1.38;;;17.20;58.30;;;;;;5053058;28;20029;-66
2022/05/08 10:52:46;;;;;;;6.22;1.00;;;17.40;58.10;;;;;;5052118;28;20205;-66
2022/05/08 10:55:17;;;;;;;4.38;1.35;;;17.50;57.90;;;;;;5052302;28;20429;-67
2022/05/08 10:57:45;;;;;;;6.15;1.40;;;17.60;57.20;;;;;;5053675;28;20107;-67
2022/05/08 11:00:19;;;;;;;7.75;1.35;;;17.80;57.20;;;;;;5053452;28;20019;-66
2022/05/08 11:02:52;;;;;;;7.90;1.55;;;17.90;55.70;;;;;;5054100;28;20396;-66
2022/05/08 11:05:20;;;;;;;7.10;1.48;;;18.00;55.20;;;;;;5053890;28;20496;-66
2022/05/08 11:07:52;;;;;;;5.78;1.38;;;18.00;55.40;;;;;;5053844;28;20411;-66
2022/05/08 11:10:35;;;;;;;6.20;1.10;;;18.30;55.20;;;;;;5053973;28;20033;-66
2022/05/08 11:13:06;;;;;;;5.28;1.27;;;18.40;54.40;;;;;;5053923;28;20031;-67
2022/05/08 11:15:42;;;;;;;7.80;1.92;;;18.60;53.40;;;;;;5053941;28;20029;-66
2022/05/08 11:18:26;;;;;;;3.38;0.95;;;18.70;53.50;;;;;;5053779;28;20060;-66
2022/05/08 11:21:02;;;;;;;6.95;1.67;;;18.90;53.90;;;;;;5052202;28;20447;-67
2022/05/08 11:23:41;;;;;;;10.10;1.45;;;19.00;53.60;;;;;;5055447;28;20104;-67
2022/05/08 11:26:11;;;;;;;5.60;1.35;;;19.20;53.00;;;;;;5053804;28;20100;-67
2022/05/08 11:28:52;;;;;;;7.68;2.13;;;19.40;51.70;;;;;;5052076;28;20036;-67
2022/05/08 11:31:19;;;;;;;6.15;1.50;;;19.50;51.30;;;;;;5062802;28;20087;-67
2022/05/08 11:36:30;;;;;;;3.67;1.10;;;19.80;49.60;;;;;;5052112;28;20060;-67
2022/05/08 11:39:09;;;;;;;2.83;0.73;;;19.90;50.30;;;;;;5051674;28;20044;-66
2022/05/08 11:41:39;;;;;;;2.97;0.90;;;20.10;50.60;;;;;;5051990;28;20029;-66
2022/05/08 11:44:14;;;;;;;5.55;1.30;;;20.30;50.40;;;;;;5052301;28;20045;-67
2022/05/08 11:46:46;;;;;;;3.55;0.82;;;20.60;50.10;;;;;;5049674;28;20029;-67
2022/05/08 11:49:21;;;;;;;6.30;1.40;;;20.80;50.00;;;;;;5049027;28;20025;-67
2022/05/08 11:51:51;;;;;;;4.93;1.45;;;21.00;49.60;;;;;;5050221;28;20065;-67
2022/05/08 11:54:21;;;;;;;3.53;1.10;;;21.00;48.20;;;;;;5051758;28;20025;-66
2022/05/08 11:56:51;;;;;;;6.03;1.38;;;21.10;48.20;;;;;;5051449;28;20470;-66
2022/05/08 11:59:19;;;;;;;4.07;1.02;;;21.30;47.80;;;;;;5051932;28;20154;-66
2022/05/08 12:01:53;;;;;;;4.15;1.30;;;21.50;47.90;;;;;;5051236;28;20047;-67
2022/05/08 12:04:33;;;;;;;3.95;1.10;;;21.70;47.30;;;;;;5049332;28;20029;-67
2022/05/08 12:07:14;;;;;;;2.85;0.82;;;21.80;47.40;;;;;;5051434;28;20404;-67
2022/05/08 12:09:55;;;;;;;4.53;0.88;;;22.00;47.50;;;;;;5049910;28;20075;-67
2022/05/08 12:12:38;;;;;;;5.78;1.92;;;22.20;47.50;;;;;;5049764;28;20473;-67
2022/05/08 12:15:06;;;;;;;4.80;1.08;;;22.40;46.40;;;;;;5047321;28;20017;-67
2022/05/08 12:17:44;;;;;;;5.55;1.25;;;22.40;45.20;;;;;;5048797;28;20107;-67
2022/05/08 12:20:32;;;;;;;3.75;0.73;;;22.50;45.90;;;;;;5047350;28;20043;-67
2022/05/08 12:22:58;;;;;;;4.60;0.83;;;22.80;46.10;;;;;;5048827;28;20112;-67
2022/05/08 12:25:24;;;;;;;4.60;1.38;;;22.90;45.90;;;;;;5050904;28;20095;-67
2022/05/08 12:27:49;;;;;;;5.35;1.40;;;23.00;45.10;;;;;;5051080;28;20064;-67
2022/05/08 12:30:15;;;;;;;4.28;0.95;;;23.10;44.40;;;;;;5050600;28;20557;-67
2022/05/08 12:32:41;;;;;;;3.45;0.75;;;23.30;44.30;;;;;;5050820;28;20047;-67
2022/05/08 12:35:10;;;;;;;5.20;1.13;;;23.50;44.70;;;;;;5050537;28;20551;-67
2022/05/08 12:37:39;;;;;;;3.85;1.27;;;23.60;44.30;;;;;;5050591;28;20021;-67
2022/05/08 12:40:06;;;;;;;4.50;0.90;;;23.60;43.40;;;;;;5050792;28;20480;-67
2022/05/08 12:42:32;;;;;;;3.17;0.80;;;23.60;42.90;;;;;;5050370;28;20040;-67
2022/05/08 12:44:57;;;;;;;3.08;1.00;;;23.60;43.20;;;;;;5052506;28;20033;-67
2022/05/08 12:47:23;;;;;;;3.25;1.15;;;23.80;43.20;;;;;;5052169;28;20025;-66
2022/05/08 12:49:49;;;;;;;4.63;0.95;;;23.90;43.00;;;;;;5051943;28;20124;-67
2022/05/08 12:52:15;;;;;;;2.97;0.60;;;24.10;42.80;;;;;;5051861;28;20079;-67
2022/05/08 12:54:40;;;;;;;4.28;0.70;;;24.30;42.40;;;;;;5051944;28;20427;-67
2022/05/08 12:57:08;;;;;;;3.33;0.95;;;24.60;42.30;;;;;;5052045;28;20025;-67
2022/05/08 12:59:44;;;;;;;3.13;0.80;;;24.70;41.30;;;;;;5051999;28;20067;-67
2022/05/08 13:02:11;;;;;;;5.13;1.02;;;24.90;41.40;;;;;;5051884;28;20075;-67
2022/05/08 13:04:40;;;;;;;3.97;1.27;;;25.10;41.20;;;;;;5051850;28;20484;-67
2022/05/08 13:07:05;;;;;;;3.30;1.00;;;25.30;41.60;;;;;;5051840;28;20028;-67
2022/05/08 13:09:31;;;;;;;3.17;0.68;;;25.40;41.00;;;;;;5052099;28;20025;-67
2022/05/08 13:11:57;;;;;;;2.58;0.60;;;25.60;41.10;;;;;;5051805;28;20441;-67